Time;durP1;ratioP1;P1;durP2;ratioP2;P2;SDS_P1;SDS_P2;PMS_P1;PMS_P2;Temp;Humidity;BMP_temperature;BMP_pressure;BME280_temperature;BME280_humidity;BME280_pressure;Samples;Min_cycle;Max_cycle;Signal;HPM_P1;HPM_P2
2023/06/10 00:01:59;;;;;;;6.22;1.05;;;;;;;14.86;100.00;90590.19;5072483;28;20075;-65
2023/06/10 00:04:26;;;;;;;2.88;2.33;;;;;;;14.77;100.00;90593.00;5072168;28;20438;-65
2023/06/10 00:06:51;;;;;;;1.23;1.23;;;;;;;14.78;100.00;90593.78;5072550;28;20499;-66
2023/06/10 00:09:18;;;;;;;2.78;2.25;;;;;;;14.84;100.00;90595.13;5072396;28;20541;-66
2023/06/10 00:11:44;;;;;;;1.17;1.17;;;;;;;14.85;100.00;90583.28;5072296;28;20029;-66
2023/06/10 00:14:09;;;;;;;2.05;1.95;;;;;;;14.84;100.00;90587.09;5072258;28;20024;-66
2023/06/10 00:16:35;;;;;;;1.67;1.58;;;;;;;14.81;100.00;90582.41;5071988;28;20145;-66
2023/06/10 00:19:02;;;;;;;1.70;1.60;;;;;;;14.81;100.00;90585.84;5072091;28;20405;-66
2023/06/10 00:21:28;;;;;;;1.35;1.30;;;;;;;14.75;100.00;90578.41;5072022;28;20064;-66
2023/06/10 00:23:55;;;;;;;2.03;1.92;;;;;;;14.79;100.00;90584.63;5072103;28;20090;-66
2023/06/10 00:26:21;;;;;;;1.75;1.65;;;;;;;14.78;100.00;90580.41;5071988;28;20032;-66
2023/06/10 00:28:47;;;;;;;1.02;1.02;;;;;;;14.81;100.00;90577.03;5072014;28;20029;-66
2023/06/10 00:31:12;;;;;;;1.50;1.40;;;;;;;14.89;100.00;90576.91;5072100;28;20033;-66
2023/06/10 00:33:38;;;;;;;1.38;1.27;;;;;;;14.92;100.00;90578.09;5071910;28;20024;-66
2023/06/10 00:36:03;;;;;;;0.90;0.90;;;;;;;14.94;100.00;90575.84;5071679;28;20059;-66
2023/06/10 00:38:28;;;;;;;2.65;2.05;;;;;;;14.99;100.00;90575.63;5071533;28;20394;-66
2023/06/10 00:40:54;;;;;;;1.20;1.20;;;;;;;15.04;100.00;90572.69;5071743;28;20055;-66
2023/06/10 00:43:20;;;;;;;1.80;1.70;;;;;;;14.98;100.00;90566.78;5071623;28;20086;-65
2023/06/10 00:45:45;;;;;;;1.58;1.40;;;;;;;14.89;100.00;90571.53;5071666;28;20111;-65
2023/06/10 00:48:10;;;;;;;1.10;1.10;;;;;;;14.84;100.00;90573.69;5071439;28;20024;-66
2023/06/10 00:50:39;;;;;;;1.27;1.27;;;;;;;14.77;100.00;90570.81;5071450;28;20024;-65
2023/06/10 00:53:05;;;;;;;0.80;0.80;;;;;;;14.72;100.00;90579.09;5071757;28;20118;-65
2023/06/10 00:55:32;;;;;;;1.13;1.13;;;;;;;14.72;100.00;90573.75;5071730;28;20078;-66
2023/06/10 00:57:58;;;;;;;1.50;1.23;;;;;;;14.73;100.00;90578.75;5071306;28;20047;-66
2023/06/10 01:00:24;;;;;;;0.98;0.98;;;;;;;14.75;100.00;90581.88;5071525;28;20460;-66
2023/06/10 01:02:52;;;;;;;0.93;0.93;;;;;;;14.83;100.00;90580.16;5071306;28;20131;-66
2023/06/10 01:05:18;;;;;;;1.13;1.13;;;;;;;14.95;100.00;90583.56;5071366;28;20052;-66
2023/06/10 01:07:56;;;;;;;1.10;1.10;;;;;;;15.00;100.00;90590.56;5071264;28;20067;-65
2023/06/10 01:10:32;;;;;;;3.42;1.38;;;;;;;15.05;100.00;90592.22;5071262;28;20066;-65
2023/06/10 01:13:03;;;;;;;1.52;1.42;;;;;;;14.91;100.00;90593.41;5071269;28;20036;-65
2023/06/10 01:15:31;;;;;;;1.35;1.35;;;;;;;14.88;100.00;90587.94;5071318;28;20033;-65
2023/06/10 01:18:02;;;;;;;1.00;1.00;;;;;;;14.91;100.00;90597.97;5071057;28;20029;-65
2023/06/10 01:20:29;;;;;;;1.20;1.20;;;;;;;14.88;100.00;90594.09;5071448;28;20025;-65
2023/06/10 01:22:55;;;;;;;2.15;2.05;;;;;;;14.87;100.00;90592.53;5071166;28;20029;-65
2023/06/10 01:25:28;;;;;;;0.82;0.82;;;;;;;14.89;100.00;90592.97;5070707;28;20036;-65
2023/06/10 01:28:20;;;;;;;1.30;1.27;;;;;;;14.89;100.00;90597.53;5071095;28;20067;-65
2023/06/10 01:31:15;;;;;;;2.40;2.25;;;;;;;14.94;100.00;90602.66;5033486;28;20036;-65
2023/06/10 01:33:49;;;;;;;1.63;1.40;;;;;;;14.86;100.00;90600.91;5071123;28;20029;-65
2023/06/10 01:36:17;;;;;;;1.50;1.50;;;;;;;14.76;100.00;90601.38;5070971;28;20489;-65
2023/06/10 01:38:44;;;;;;;0.93;0.93;;;;;;;14.72;100.00;90600.53;5070795;28;20056;-65
2023/06/10 01:41:13;;;;;;;1.33;1.30;;;;;;;14.65;100.00;90601.09;5071308;28;20020;-65
2023/06/10 01:43:38;;;;;;;3.03;2.75;;;;;;;14.73;100.00;90597.50;5070943;28;20111;-65
2023/06/10 01:46:04;;;;;;;1.60;1.50;;;;;;;14.79;100.00;90600.72;5070825;28;20116;-65
2023/06/10 01:48:30;;;;;;;2.30;1.50;;;;;;;14.83;100.00;90596.22;5070924;28;20031;-65
2023/06/10 01:50:58;;;;;;;2.25;2.15;;;;;;;14.85;100.00;90597.47;5070874;28;20032;-65
2023/06/10 01:53:23;;;;;;;1.10;1.10;;;;;;;14.79;100.00;90596.13;5070896;28;20060;-65
2023/06/10 01:55:49;;;;;;;0.80;0.80;;;;;;;14.81;100.00;90590.44;5070909;28;20063;-65
2023/06/10 01:58:15;;;;;;;1.48;1.38;;;;;;;14.76;100.00;90602.16;5070807;28;20452;-65
2023/06/10 02:00:40;;;;;;;1.35;1.35;;;;;;;14.78;100.00;90594.56;5070810;28;20031;-65
2023/06/10 02:03:05;;;;;;;0.95;0.95;;;;;;;14.83;100.00;90590.84;5070866;28;20082;-64
2023/06/10 02:05:31;;;;;;;1.00;1.00;;;;;;;14.84;100.00;90595.13;5070705;28;20103;-64
2023/06/10 02:07:57;;;;;;;1.92;1.83;;;;;;;14.80;100.00;90600.34;5070612;28;20052;-65
2023/06/10 02:10:22;;;;;;;1.45;1.35;;;;;;;14.90;100.00;90601.78;5070749;28;20501;-65
2023/06/10 02:12:48;;;;;;;2.25;1.25;;;;;;;14.99;100.00;90610.44;5223189;22;20033;-61
2023/06/10 02:15:13;;;;;;;1.40;1.33;;;;;;;15.08;100.00;90618.31;5050409;28;20044;-61
2023/06/10 02:17:39;;;;;;;0.98;0.98;;;;;;;15.10;100.00;90600.78;5050296;28;20029;-62
2023/06/10 02:20:07;;;;;;;1.23;1.23;;;;;;;15.11;100.00;90599.66;5050328;28;20107;-62
2023/06/10 02:22:33;;;;;;;1.17;1.17;;;;;;;15.01;100.00;90596.72;5050170;28;20102;-62
2023/06/10 02:24:59;;;;;;;3.17;1.95;;;;;;;15.09;100.00;90599.22;5050492;28;20063;-61
2023/06/10 02:27:24;;;;;;;1.27;1.23;;;;;;;15.10;100.00;90591.97;5050229;28;20486;-61
2023/06/10 02:29:50;;;;;;;1.65;1.55;;;;;;;15.09;100.00;90593.84;5050428;28;20493;-62
2023/06/10 02:32:15;;;;;;;1.25;1.20;;;;;;;15.11;100.00;90591.59;5050244;28;20411;-62
2023/06/10 02:34:42;;;;;;;1.45;1.45;;;;;;;15.11;100.00;90588.94;5050088;28;20036;-61
2023/06/10 02:37:08;;;;;;;1.73;1.63;;;;;;;14.91;100.00;90597.97;5051448;28;20116;-61
2023/06/10 02:39:34;;;;;;;2.05;1.80;;;;;;;14.79;100.00;90587.31;5053722;28;20504;-62
2023/06/10 02:41:59;;;;;;;2.45;1.45;;;;;;;14.83;100.00;90598.88;5054036;28;20083;-61
2023/06/10 02:44:25;;;;;;;1.67;1.58;;;;;;;14.88;100.00;90596.75;5053523;28;20410;-61
2023/06/10 02:46:50;;;;;;;1.98;1.83;;;;;;;14.90;100.00;90588.38;5053637;28;20617;-61
2023/06/10 02:49:15;;;;;;;1.42;1.30;;;;;;;14.90;100.00;90599.09;5053636;28;20028;-62
2023/06/10 02:51:41;;;;;;;1.30;1.30;;;;;;;14.90;100.00;90601.78;5053510;28;20102;-62
2023/06/10 02:54:06;;;;;;;1.48;1.38;;;;;;;14.84;100.00;90587.88;5053466;28;20025;-62
2023/06/10 02:56:33;;;;;;;2.00;1.90;;;;;;;14.88;100.00;90593.31;5053465;28;20029;-62
2023/06/10 02:58:58;;;;;;;2.28;1.55;;;;;;;14.88;100.00;90587.94;5053139;28;20029;-61
2023/06/10 03:01:24;;;;;;;2.53;2.33;;;;;;;14.89;100.00;90592.97;5053379;28;20090;-61
2023/06/10 03:03:50;;;;;;;1.50;1.45;;;;;;;14.94;100.00;90597.28;5053199;28;20031;-62
2023/06/10 03:06:16;;;;;;;2.22;1.40;;;;;;;15.11;100.00;90596.97;5053532;28;20075;-61
2023/06/10 03:08:42;;;;;;;1.30;1.23;;;;;;;15.12;100.00;90598.53;5053477;28;20025;-60
2023/06/10 03:11:08;;;;;;;1.08;1.00;;;;;;;15.13;100.00;90600.09;5053220;28;20040;-60
2023/06/10 03:13:33;;;;;;;1.08;0.98;;;;;;;15.23;100.00;90596.13;5052903;28;20045;-60
2023/06/10 03:15:59;;;;;;;1.10;1.10;;;;;;;15.40;100.00;90597.69;5053355;28;20051;-60
2023/06/10 03:18:26;;;;;;;2.78;2.58;;;;;;;15.54;100.00;90598.03;5052958;28;20475;-60
2023/06/10 03:20:52;;;;;;;1.25;1.25;;;;;;;15.58;100.00;90596.22;5053234;28;20029;-60
2023/06/10 03:23:18;;;;;;;1.95;1.85;;;;;;;15.62;100.00;90597.13;5052937;28;20106;-60
2023/06/10 03:25:44;;;;;;;1.30;1.20;;;;;;;15.63;100.00;90596.00;5052891;28;20457;-60
2023/06/10 03:28:10;;;;;;;1.58;1.48;;;;;;;15.68;100.00;90593.06;5052667;28;20033;-60
2023/06/10 03:30:35;;;;;;;1.10;1.10;;;;;;;15.71;100.00;90602.31;5052813;28;20091;-60
2023/06/10 03:33:01;;;;;;;1.42;1.33;;;;;;;15.74;100.00;90598.94;5052798;28;20029;-61
2023/06/10 03:35:26;;;;;;;1.50;1.40;;;;;;;15.69;100.00;90589.25;5052675;28;20029;-60
2023/06/10 03:37:52;;;;;;;1.80;1.50;;;;;;;15.74;100.00;90590.88;5052617;28;20027;-60
2023/06/10 03:40:17;;;;;;;1.85;1.70;;;;;;;15.71;100.00;90592.34;5052678;28;20032;-60
2023/06/10 03:42:43;;;;;;;1.90;1.80;;;;;;;15.46;100.00;90591.75;5052511;28;20095;-60
2023/06/10 03:45:09;;;;;;;3.50;1.63;;;;;;;15.49;100.00;90587.59;5052637;28;20108;-60
2023/06/10 03:47:36;;;;;;;1.33;1.23;;;;;;;15.55;100.00;90591.56;5052143;28;20116;-60
2023/06/10 03:50:05;;;;;;;1.60;1.20;;;;;;;15.51;100.00;90582.66;5052712;28;20107;-60
2023/06/10 03:52:31;;;;;;;1.65;1.55;;;;;;;15.52;100.00;90586.91;5052604;28;20087;-60
2023/06/10 03:54:56;;;;;;;1.98;1.88;;;;;;;15.67;100.00;90585.38;5052476;28;20017;-60
2023/06/10 03:57:21;;;;;;;1.92;1.80;;;;;;;15.70;100.00;90596.16;5052430;28;20467;-60
2023/06/10 03:59:47;;;;;;;1.85;1.75;;;;;;;15.67;100.00;90585.38;5052256;28;20510;-60
2023/06/10 04:02:12;;;;;;;1.98;1.88;;;;;;;15.73;100.00;90579.38;5052247;28;20116;-60
2023/06/10 04:04:38;;;;;;;1.88;1.65;;;;;;;15.79;100.00;90580.69;5052111;28;20112;-60
2023/06/10 04:07:06;;;;;;;1.42;1.33;;;;;;;15.84;100.00;90583.09;5052425;28;20108;-60
2023/06/10 04:09:31;;;;;;;2.05;1.88;;;;;;;16.01;100.00;90573.09;5052397;28;20021;-60
2023/06/10 04:11:57;;;;;;;1.88;1.63;;;;;;;16.12;100.00;90572.22;5052286;28;20552;-60
2023/06/10 04:14:22;;;;;;;1.58;1.48;;;;;;;16.21;100.00;90574.69;5066944;28;20052;-60
2023/06/10 04:16:47;;;;;;;8.80;1.88;;;;;;;16.43;100.00;90579.41;5072016;28;20020;-60
2023/06/10 04:19:13;;;;;;;0.80;0.80;;;;;;;16.41;100.00;90570.13;5071851;28;20524;-60
2023/06/10 04:21:38;;;;;;;1.98;1.88;;;;;;;16.66;100.00;90576.78;5071915;28;20021;-60
2023/06/10 04:24:04;;;;;;;3.72;2.58;;;;;;;16.65;100.00;90583.28;5071633;28;20036;-60
2023/06/10 04:26:29;;;;;;;1.55;1.45;;;;;;;16.77;100.00;90579.72;5071956;28;20025;-61
2023/06/10 04:28:55;;;;;;;1.58;1.58;;;;;;;16.80;100.00;90578.22;5071662;28;20397;-60
2023/06/10 04:31:20;;;;;;;1.95;1.85;;;;;;;16.65;100.00;90582.50;5071612;28;20040;-60
2023/06/10 04:33:46;;;;;;;1.58;1.48;;;;;;;16.95;100.00;90585.44;5071840;28;20036;-60
2023/06/10 04:36:11;;;;;;;1.20;1.10;;;;;;;17.10;100.00;90584.56;5071857;28;20036;-60
2023/06/10 04:38:37;;;;;;;1.20;1.20;;;;;;;17.18;100.00;90582.78;5071495;28;20016;-60
2023/06/10 04:41:02;;;;;;;1.35;1.35;;;;;;;17.41;100.00;90583.59;5071458;28;20412;-60
2023/06/10 04:43:30;;;;;;;1.00;1.00;;;;;;;17.49;100.00;90579.09;5071286;28;20039;-61
2023/06/10 04:45:56;;;;;;;1.20;1.20;;;;;;;17.60;100.00;90586.22;5071336;28;20056;-61
2023/06/10 04:48:23;;;;;;;1.58;1.50;;;;;;;17.84;100.00;90584.31;5071247;28;20100;-61
2023/06/10 04:50:49;;;;;;;1.98;1.23;;;;;;;17.78;100.00;90583.06;5070155;28;20078;-61
2023/06/10 04:53:15;;;;;;;2.13;1.80;;;;;;;17.91;100.00;90585.19;5070642;28;20058;-61
2023/06/10 04:55:41;;;;;;;1.85;1.70;;;;;;;18.47;100.00;90581.00;5070726;28;20648;-61
2023/06/10 04:58:06;;;;;;;2.00;1.88;;;;;;;18.94;100.00;90582.38;5070643;28;20024;-61
2023/06/10 05:00:32;;;;;;;2.33;1.92;;;;;;;19.34;100.00;90577.03;5070375;28;20025;-61
2023/06/10 05:02:57;;;;;;;1.05;1.05;;;;;;;19.64;100.00;90573.50;5070940;28;20036;-61
2023/06/10 05:05:22;;;;;;;1.33;1.23;;;;;;;19.89;100.00;90577.19;5070480;28;20024;-61
2023/06/10 05:07:48;;;;;;;2.85;2.03;;;;;;;19.99;100.00;90570.31;5070996;28;20466;-61
2023/06/10 05:10:13;;;;;;;1.05;1.05;;;;;;;20.31;100.00;90575.94;5070948;28;20034;-60
2023/06/10 05:12:39;;;;;;;1.42;1.33;;;;;;;20.43;100.00;90583.00;5070561;28;20031;-61
2023/06/10 05:15:06;;;;;;;1.15;1.15;;;;;;;20.66;100.00;90578.09;5071136;28;20033;-61
2023/06/10 05:17:32;;;;;;;1.75;1.33;;;;;;;20.85;100.00;90574.34;5070911;28;20064;-60
2023/06/10 05:19:58;;;;;;;1.50;1.40;;;;;;;20.79;100.00;90575.84;5070970;28;20484;-61
2023/06/10 05:22:24;;;;;;;0.95;0.95;;;;;;;20.78;100.00;90579.69;5070581;28;20431;-61
2023/06/10 05:24:51;;;;;;;2.47;1.45;;;;;;;20.46;100.00;90568.72;5070120;28;20029;-62
2023/06/10 05:27:16;;;;;;;1.40;1.35;;;;;;;20.54;100.00;90573.81;5052834;28;20484;-62
2023/06/10 05:29:42;;;;;;;1.63;1.52;;;;;;;20.71;100.00;90572.34;5061946;28;20128;-61
2023/06/10 05:32:08;;;;;;;1.80;1.70;;;;;;;20.78;100.00;90574.28;5050431;28;20414;-61
2023/06/10 05:34:33;;;;;;;1.83;1.63;;;;;;;20.58;100.00;90580.00;5062917;28;20028;-61
2023/06/10 05:36:59;;;;;;;2.08;1.98;;;;;;;20.41;100.00;90575.25;5070285;28;20082;-61
2023/06/10 05:39:25;;;;;;;2.45;1.92;;;;;;;20.58;100.00;90577.28;5070078;28;20055;-61
2023/06/10 05:41:51;;;;;;;1.63;1.52;;;;;;;20.88;100.00;90579.75;5051925;28;20123;-59
2023/06/10 05:44:16;;;;;;;1.73;1.58;;;;;;;21.19;100.00;90578.34;5052411;28;20562;-62
2023/06/10 05:46:41;;;;;;;2.25;2.13;;;;;;;21.20;100.00;90574.47;5070176;28;20020;-61
2023/06/10 05:49:07;;;;;;;1.33;1.20;;;;;;;20.99;100.00;90574.41;5070465;28;20028;-61
2023/06/10 05:51:32;;;;;;;0.93;0.93;;;;;;;21.30;100.00;90577.59;5070161;28;20417;-61
2023/06/10 05:53:58;;;;;;;1.20;1.20;;;;;;;21.32;100.00;90570.69;5069607;28;20351;-61
2023/06/10 05:56:23;;;;;;;1.35;1.33;;;;;;;21.11;100.00;90581.38;5070063;28;20029;-62
2023/06/10 05:58:49;;;;;;;2.30;2.15;;;;;;;21.45;100.00;90579.19;5070177;28;20104;-61
2023/06/10 06:01:15;;;;;;;1.98;1.88;;;;;;;21.08;100.00;90585.63;5070309;28;20028;-62
2023/06/10 06:03:40;;;;;;;1.42;1.23;;;;;;;20.97;100.00;90579.41;5070340;28;20032;-60
2023/06/10 06:06:06;;;;;;;2.20;1.75;;;;;;;20.72;100.00;90581.22;5070150;28;20052;-61
2023/06/10 06:08:32;;;;;;;3.35;1.58;;;;;;;20.50;100.00;90591.91;5069674;28;20155;-61
2023/06/10 06:10:57;;;;;;;3.10;2.25;;;;;;;20.30;100.00;90587.91;5071191;28;20536;-62
2023/06/10 06:13:23;;;;;;;1.58;1.45;;;;;;;20.33;100.00;90581.72;5073649;28;20473;-63
2023/06/10 06:15:48;;;;;;;1.67;1.55;;;;;;;20.33;100.00;90589.84;5073859;28;20039;-62
2023/06/10 06:18:14;;;;;;;2.33;2.13;;;;;;;19.79;100.00;90582.50;5073851;28;20055;-62
2023/06/10 06:20:40;;;;;;;2.08;1.88;;;;;;;19.67;100.00;90589.72;5073773;28;20035;-61
2023/06/10 06:23:05;;;;;;;3.00;2.80;;;;;;;19.52;100.00;90588.00;5073250;28;20036;-61
2023/06/10 06:25:30;;;;;;;1.60;1.50;;;;;;;19.44;100.00;90592.56;5073676;28;20040;-61
2023/06/10 06:27:56;;;;;;;1.88;1.77;;;;;;;19.29;100.00;90595.47;5073596;28;20112;-62
2023/06/10 06:30:21;;;;;;;2.08;1.90;;;;;;;19.43;100.00;90588.31;5073496;28;20032;-62
2023/06/10 06:32:47;;;;;;;2.30;2.20;;;;;;;18.98;100.00;90593.97;5073590;28;20044;-61
2023/06/10 06:35:12;;;;;;;3.65;2.20;;;;;;;19.05;100.00;90594.06;5073435;28;20040;-61
2023/06/10 06:37:37;;;;;;;4.38;3.80;;;;;;;19.21;100.00;90593.84;5073765;28;20066;-61
2023/06/10 06:40:03;;;;;;;2.65;2.42;;;;;;;19.10;100.00;90591.06;5073203;28;20405;-61
2023/06/10 06:42:29;;;;;;;1.73;1.60;;;;;;;18.94;100.00;90590.47;5073452;28;20098;-61
2023/06/10 06:44:54;;;;;;;1.75;1.65;;;;;;;18.75;100.00;90584.06;5071744;28;20032;-61
2023/06/10 06:47:20;;;;;;;4.38;2.95;;;;;;;18.60;100.00;90595.78;5072291;28;20029;-60
2023/06/10 06:49:48;;;;;;;2.35;2.17;;;;;;;18.57;100.00;90596.50;5072609;28;20048;-60
2023/06/10 06:52:15;;;;;;;2.83;2.55;;;;;;;18.53;100.00;90593.00;5072055;28;20032;-61
2023/06/10 06:54:40;;;;;;;1.58;1.48;;;;;;;18.63;100.00;90597.78;5071690;28;20082;-61
2023/06/10 06:57:06;;;;;;;2.78;2.38;;;;;;;18.49;100.00;90590.28;5073060;28;20525;-61
2023/06/10 06:59:32;;;;;;;1.00;1.00;;;;;;;18.32;100.00;90587.34;5071645;28;20029;-61
2023/06/10 07:01:58;;;;;;;1.50;1.40;;;;;;;18.21;100.00;90596.03;5072456;28;20044;-62
2023/06/10 07:04:23;;;;;;;2.45;1.65;;;;;;;18.09;100.00;90595.44;5072854;28;20526;-62
2023/06/10 07:06:49;;;;;;;2.20;2.00;;;;;;;17.63;100.00;90598.16;5073047;28;20028;-61
2023/06/10 07:09:14;;;;;;;2.15;2.05;;;;;;;17.40;100.00;90597.38;5073120;28;20045;-61
2023/06/10 07:11:40;;;;;;;2.33;1.63;;;;;;;17.24;100.00;90595.56;5073094;28;20423;-61
2023/06/10 07:14:06;;;;;;;2.22;2.08;;;;;;;17.19;100.00;90598.53;5072677;28;20041;-63
2023/06/10 07:16:32;;;;;;;2.05;1.75;;;;;;;17.11;100.00;90604.16;5073101;28;20119;-61
2023/06/10 07:18:57;;;;;;;3.75;3.30;;;;;;;17.11;100.00;90604.16;5072242;28;20124;-62
2023/06/10 07:21:23;;;;;;;2.78;2.53;;;;;;;16.93;100.00;90607.28;5072996;28;20399;-61
2023/06/10 07:23:49;;;;;;;1.90;1.35;;;;;;;16.95;100.00;90598.88;5072223;28;20067;-62
2023/06/10 07:26:14;;;;;;;1.98;1.88;;;;;;;16.96;100.00;90611.16;5072926;28;20048;-62
2023/06/10 07:28:40;;;;;;;1.30;1.30;;;;;;;17.10;100.00;90606.06;5072595;28;20038;-64
2023/06/10 07:31:07;;;;;;;1.92;1.58;;;;;;;17.05;100.00;90607.13;5072772;28;20028;-63
2023/06/10 07:33:33;;;;;;;1.17;1.17;;;;;;;16.83;100.00;90599.00;5072695;28;20056;-63
2023/06/10 07:35:58;;;;;;;1.33;1.33;;;;;;;16.81;100.00;90599.38;5072717;28;20032;-64
2023/06/10 07:38:25;;;;;;;1.13;1.13;;;;;;;16.51;100.00;90601.00;5058356;28;20036;-65
2023/06/10 07:40:51;;;;;;;1.05;1.05;;;;;;;16.63;100.00;90603.56;5052754;28;20067;-65
2023/06/10 07:43:16;;;;;;;2.25;2.05;;;;;;;16.50;100.00;90602.91;5052241;28;20506;-64
2023/06/10 07:45:42;;;;;;;3.53;2.20;;;;;;;16.67;100.00;90604.44;5052346;28;20037;-65
2023/06/10 07:48:08;;;;;;;2.30;1.77;;;;;;;16.46;100.00;90597.50;5052415;28;20044;-62
2023/06/10 07:50:33;;;;;;;1.25;1.25;;;;;;;16.44;100.00;90601.66;5051791;28;20399;-62
2023/06/10 07:52:59;;;;;;;1.85;1.75;;;;;;;16.69;100.00;90602.19;5052131;28;20037;-63
2023/06/10 07:55:26;;;;;;;2.10;2.00;;;;;;;17.01;100.00;90606.28;5052131;28;20052;-62
2023/06/10 07:57:52;;;;;;;1.40;1.30;;;;;;;17.36;100.00;90603.47;5052333;28;20029;-62
2023/06/10 08:00:18;;;;;;;8.65;2.42;;;;;;;17.08;100.00;90599.50;5052041;28;20076;-64
2023/06/10 08:02:43;;;;;;;1.30;1.20;;;;;;;17.25;100.00;90596.34;5052091;28;20069;-63
2023/06/10 08:05:08;;;;;;;4.05;1.45;;;;;;;17.45;100.00;90605.16;5051579;28;20037;-64
2023/06/10 08:07:34;;;;;;;1.98;1.48;;;;;;;17.77;100.00;90598.41;5052116;28;20040;-63
2023/06/10 08:10:00;;;;;;;1.20;1.20;;;;;;;18.23;100.00;90601.81;5051989;28;20072;-64
2023/06/10 08:12:25;;;;;;;1.50;1.40;;;;;;;18.68;100.00;90594.78;5051621;28;20044;-65
2023/06/10 08:14:51;;;;;;;1.08;1.08;;;;;;;20.62;100.00;90599.69;5051665;28;20045;-65
2023/06/10 08:17:16;;;;;;;2.28;1.30;;;;;;;21.70;100.00;90601.69;5051633;28;20106;-64
2023/06/10 08:19:42;;;;;;;1.73;1.63;;;;;;;21.52;100.00;90600.88;5051226;28;20036;-64
2023/06/10 08:22:07;;;;;;;1.13;1.13;;;;;;;21.87;100.00;90602.88;5051528;28;20056;-64
2023/06/10 08:24:33;;;;;;;2.47;2.15;;;;;;;22.85;100.00;90592.41;5051546;28;20514;-63
2023/06/10 08:26:58;;;;;;;0.82;0.82;;;;;;;23.89;100.00;90595.47;5051484;28;20036;-66
2023/06/10 08:29:24;;;;;;;1.00;1.00;;;;;;;24.64;100.00;90594.91;5051311;28;20037;-66
2023/06/10 08:31:49;;;;;;;1.20;1.15;;;;;;;23.80;100.00;90595.13;5051364;28;20037;-66
2023/06/10 08:34:14;;;;;;;1.30;1.20;;;;;;;23.32;100.00;90598.44;5050189;28;20086;-64
2023/06/10 08:36:40;;;;;;;1.35;1.27;;;;;;;22.97;100.00;90591.97;5051176;28;20510;-64
2023/06/10 08:39:05;;;;;;;1.13;1.13;;;;;;;23.25;100.00;90595.78;5051343;28;20036;-63
2023/06/10 08:41:45;;;;;;;1.20;1.10;;;;;;;24.35;100.00;90586.22;5051634;28;20036;-67
2023/06/10 08:44:22;;;;;;;0.90;0.90;;;;;;;24.44;100.00;90590.00;5051220;28;20049;-65
2023/06/10 08:46:48;;;;;;;0.95;0.95;;;;;;;26.18;100.00;90591.91;5051190;28;20056;-63
2023/06/10 08:49:18;;;;;;;1.30;1.25;;;;;;;27.52;99.68;90587.31;5050821;28;20032;-63
2023/06/10 08:51:45;;;;;;;0.95;0.90;;;;;;;27.99;89.81;90585.16;5051056;28;20041;-63
2023/06/10 08:54:20;;;;;;;1.55;1.35;;;;;;;30.64;60.19;90584.03;5051081;28;20041;-62
2023/06/10 08:56:49;;;;;;;1.20;1.10;;;;;;;33.46;53.92;90588.22;5051083;28;20045;-63
2023/06/10 08:59:16;;;;;;;1.08;0.95;;;;;;;32.50;50.01;90585.78;5050964;28;20490;-61
2023/06/10 09:01:43;;;;;;;1.00;1.00;;;;;;;32.76;49.64;90576.09;5050912;28;20032;-62
2023/06/10 09:04:08;;;;;;;0.80;0.80;;;;;;;32.54;47.95;90584.44;5050385;28;20095;-64
2023/06/10 09:06:35;;;;;;;1.75;1.58;;;;;;;32.65;46.79;90582.00;5050811;28;20037;-64
2023/06/10 09:09:01;;;;;;;1.45;1.30;;;;;;;34.04;46.90;90579.00;5051081;28;20025;-65
2023/06/10 09:11:27;;;;;;;0.77;0.77;;;;;;;34.45;46.87;90568.47;5050810;28;20550;-64
2023/06/10 09:13:52;;;;;;;1.08;1.08;;;;;;;34.25;40.61;90571.75;5050537;28;20128;-65
2023/06/10 09:16:18;;;;;;;2.45;1.67;;;;;;;31.88;43.16;90573.53;5050773;28;20031;-65
2023/06/10 09:18:44;;;;;;;3.40;1.35;;;;;;;32.31;47.33;90563.69;5050356;28;20029;-64
2023/06/10 09:21:09;;;;;;;1.20;1.15;;;;;;;34.05;43.40;90572.22;5050575;28;20029;-64
2023/06/10 09:23:36;;;;;;;0.95;0.95;;;;;;;35.98;42.17;90569.28;5050563;28;20028;-64
2023/06/10 09:26:04;;;;;;;1.50;1.40;;;;;;;34.33;40.10;90555.59;5050642;28;20060;-64
2023/06/10 09:28:30;;;;;;;0.90;0.90;;;;;;;34.75;40.09;90567.44;5050446;28;20032;-64
2023/06/10 09:31:07;;;;;;;15.32;2.22;;;;;;;34.79;39.78;90559.72;5050616;28;20026;-64
2023/06/10 09:33:32;;;;;;;1.02;1.00;;;;;;;34.51;41.10;90566.59;5050185;28;20064;-64
2023/06/10 09:36:01;;;;;;;0.73;0.73;;;;;;;33.06;42.95;90555.22;5061019;28;20067;-64
2023/06/10 09:38:32;;;;;;;0.68;0.68;;;;;;;33.81;42.88;90557.53;5070455;28;20032;-64
2023/06/10 09:40:58;;;;;;;1.40;1.30;;;;;;;35.17;38.38;90552.78;5070788;28;20024;-65
2023/06/10 09:43:42;;;;;;;0.63;0.63;;;;;;;33.57;38.21;90547.13;5070673;28;20033;-64
2023/06/10 09:46:15;;;;;;;1.15;1.08;;;;;;;33.31;42.34;90554.16;5071798;28;20024;-63
2023/06/10 09:48:44;;;;;;;1.38;1.27;;;;;;;33.57;41.65;90546.38;5074338;28;20055;-63
2023/06/10 09:51:10;;;;;;;1.08;1.02;;;;;;;34.02;41.25;90542.03;5074538;28;20028;-63
2023/06/10 09:53:37;;;;;;;2.42;1.58;;;;;;;31.49;44.05;90550.16;5074435;28;20033;-63
2023/06/10 09:56:02;;;;;;;1.33;1.23;;;;;;;30.26;48.05;90544.81;5074420;28;20032;-63
2023/06/10 09:58:43;;;;;;;1.30;1.20;;;;;;;33.78;43.01;90533.63;5074346;28;20036;-63
2023/06/10 10:01:10;;;;;;;1.00;1.00;;;;;;;35.51;38.82;90547.97;5074392;28;20036;-64
2023/06/10 10:03:50;;;;;;;1.38;1.30;;;;;;;36.57;39.48;90534.00;5073818;28;20043;-64
2023/06/10 10:06:17;;;;;;;0.65;0.65;;;;;;;35.17;39.19;90540.94;5074189;28;20056;-64
2023/06/10 10:08:44;;;;;;;3.38;1.45;;;;;;;32.46;42.10;90539.88;5074289;28;20036;-63
2023/06/10 10:11:10;;;;;;;1.05;0.98;;;;;;;30.70;45.81;90532.06;5074087;28;20051;-64
2023/06/10 10:13:37;;;;;;;1.15;0.70;;;;;;;29.41;47.19;90529.66;5065259;28;20049;-64
2023/06/10 10:16:19;;;;;;;0.70;0.70;;;;;;;28.91;46.24;90528.25;5053972;28;20116;-63
2023/06/10 10:18:53;;;;;;;0.93;0.93;;;;;;;30.98;43.49;90527.59;5053355;28;20033;-63
2023/06/10 10:21:23;;;;;;;0.60;0.60;;;;;;;30.88;41.59;90531.47;5053822;28;20032;-64
2023/06/10 10:23:57;;;;;;;1.50;1.40;;;;;;;31.76;42.66;90529.59;5045668;28;20029;-63
2023/06/10 10:26:26;;;;;;;3.83;1.77;;;;;;;31.26;44.17;90523.13;5053747;28;20033;-64
2023/06/10 10:29:00;;;;;;;1.02;1.02;;;;;;;29.13;46.43;90525.72;5053641;28;20051;-63
2023/06/10 10:31:30;;;;;;;1.00;1.00;;;;;;;28.71;48.02;90516.63;5054011;28;20522;-63
2023/06/10 10:33:59;;;;;;;1.20;1.02;;;;;;;29.26;46.91;90520.28;5053039;28;20566;-64
2023/06/10 10:36:25;;;;;;;0.73;0.73;;;;;;;27.60;49.55;90514.91;5053915;28;20021;-65
2023/06/10 10:38:51;;;;;;;1.15;1.10;;;;;;;28.91;51.17;90511.84;5053493;28;20032;-65
2023/06/10 10:41:18;;;;;;;3.55;1.30;;;;;;;30.60;48.85;90514.69;5053434;28;20414;-65
2023/06/10 10:43:46;;;;;;;0.80;0.80;;;;;;;30.62;48.31;90517.81;5053297;28;20033;-65
2023/06/10 10:46:14;;;;;;;1.75;1.65;;;;;;;30.73;48.96;90505.69;5053498;28;20025;-65
2023/06/10 10:48:43;;;;;;;0.90;0.88;;;;;;;29.94;53.07;90508.13;5053236;28;20410;-65
2023/06/10 10:51:09;;;;;;;1.75;1.65;;;;;;;29.32;51.89;90506.81;5053290;28;20037;-66
2023/06/10 10:53:37;;;;;;;1.23;1.13;;;;;;;29.62;51.43;90500.09;5053181;28;20025;-65
2023/06/10 10:56:14;;;;;;;1.65;1.55;;;;;;;29.28;51.97;90493.22;5053517;28;20033;-65
2023/06/10 10:58:39;;;;;;;0.98;0.98;;;;;;;29.15;53.76;90495.16;5051882;28;20029;-66
2023/06/10 11:01:14;;;;;;;1.48;1.38;;;;;;;28.01;55.14;90493.31;5046895;28;20041;-65
2023/06/10 11:03:49;;;;;;;3.33;1.75;;;;;;;26.86;56.60;90509.75;5055139;28;20041;-66
2023/06/10 11:06:16;;;;;;;1.35;1.10;;;;;;;26.24;58.57;90503.78;5051987;28;20099;-64
2023/06/10 11:08:41;;;;;;;1.40;1.35;;;;;;;26.31;63.65;90497.44;5052957;28;20062;-65
2023/06/10 11:11:27;;;;;;;3.35;0.80;;;;;;;25.56;63.51;90497.78;5052925;28;20087;-64
2023/06/10 11:14:07;;;;;;;1.15;1.10;;;;;;;24.79;65.92;90495.66;5063645;28;20052;-65
2023/06/10 11:16:43;;;;;;;2.80;1.50;;;;;;;26.42;70.51;90487.16;5072840;28;20020;-64
2023/06/10 11:19:09;;;;;;;1.17;1.08;;;;;;;28.93;57.87;90479.31;5072312;28;20418;-64
2023/06/10 11:21:59;;;;;;;3.47;1.45;;;;;;;31.06;50.17;90495.13;5072194;28;20395;-64
2023/06/10 11:24:25;;;;;;;0.85;0.85;;;;;;;33.03;45.05;90490.75;5070729;28;20020;-65
2023/06/10 11:26:51;;;;;;;1.25;1.15;;;;;;;32.40;45.12;90492.16;5072206;28;20153;-64